Terminal Aerodrome Forecast
Issued by NWS

Home | Current Version | Previous Version | Text Only | Print | Product List | Glossary On
Versions: 1 2 3 4 5 6 7 8 9 10 11 12 13
000
FTUS43 KOAX 112329
TAFCDR
TAF
KCDR 112329Z 1200/1224 31008KT P6SM FEW150
     FM120300 VRB04KT P6SM FEW200
     FM120900 26005KT P6SM SCT200
     FM121900 28012G20KT P6SM SKC=

USA.gov is the U.S. government's official web portal to all federal, state and local government web resources and services.